createdAt,value
2019-02-16T00:01:23.219Z,38.80
2019-02-16T00:03:52.573Z,38.03
2019-02-16T00:06:21.882Z,40.50
2019-02-16T00:08:51.234Z,39.20
2019-02-16T00:11:20.532Z,38.97
2019-02-16T00:13:49.876Z,37.20
2019-02-16T00:16:19.191Z,37.70
2019-02-16T00:18:48.554Z,40.97
2019-02-16T00:21:18.742Z,40.83
2019-02-16T00:23:48.101Z,42.00
2019-02-16T00:26:17.422Z,41.10
2019-02-16T00:28:46.998Z,43.80
2019-02-16T00:31:16.700Z,44.70
2019-02-16T00:33:47.137Z,44.03
2019-02-16T00:36:16.453Z,45.57
2019-02-16T00:38:45.820Z,44.17
2019-02-16T00:41:15.186Z,45.43
2019-02-16T00:43:44.661Z,39.87
2019-02-16T00:46:14.017Z,40.90
2019-02-16T00:48:43.334Z,39.97
2019-02-16T00:51:13.944Z,43.37
2019-02-16T00:53:43.483Z,41.33
2019-02-16T00:56:12.841Z,43.13
2019-02-16T00:58:42.169Z,43.03
2019-02-16T01:01:11.526Z,40.97
2019-02-16T01:03:40.846Z,42.07
2019-02-16T01:06:10.202Z,43.87
2019-02-16T01:08:39.519Z,42.03
2019-02-16T01:11:08.869Z,43.10
2019-02-16T01:13:38.187Z,43.40
2019-02-16T01:16:07.539Z,41.80
2019-02-16T01:18:38.160Z,43.87
2019-02-16T01:21:07.526Z,43.87
2019-02-16T01:23:36.840Z,46.77
2019-02-16T01:26:06.417Z,43.70
2019-02-16T01:28:35.729Z,41.70
2019-02-16T01:31:05.083Z,45.10
2019-02-16T01:33:34.431Z,45.50
2019-02-16T01:36:03.853Z,42.10
2019-02-16T01:38:33.170Z,40.87
2019-02-16T01:41:02.521Z,42.47
2019-02-16T01:43:31.832Z,42.90
2019-02-16T01:46:01.184Z,45.97
2019-02-16T01:48:30.486Z,41.93
2019-02-16T01:50:59.846Z,40.67
2019-02-16T01:53:29.178Z,42.50
2019-02-16T01:55:58.492Z,44.03
2019-02-16T01:58:27.810Z,45.47
2019-02-16T02:00:57.161Z,46.53
2019-02-16T02:03:26.477Z,47.30
2019-02-16T02:05:55.829Z,47.23
2019-02-16T02:08:25.153Z,43.80
2019-02-16T02:10:54.502Z,39.43
2019-02-16T02:13:23.810Z,42.87
2019-02-16T02:15:53.166Z,40.93
2019-02-16T02:18:22.475Z,43.30
2019-02-16T02:20:51.816Z,40.07
2019-02-16T02:23:21.138Z,43.47
2019-02-16T02:25:50.485Z,43.87
2019-02-16T02:28:19.791Z,42.73
2019-02-16T02:30:50.112Z,44.73
2019-02-16T02:33:19.426Z,44.17
2019-02-16T02:35:48.787Z,40.93
2019-02-16T02:38:18.088Z,42.57
2019-02-16T02:40:47.446Z,43.73
2019-02-16T02:43:16.748Z,40.60
2019-02-16T02:45:46.093Z,43.50
2019-02-16T02:48:15.396Z,41.70
2019-02-16T02:50:44.808Z,41.27
2019-02-16T02:53:14.138Z,40.60
2019-02-16T02:55:43.477Z,37.00
2019-02-16T02:58:12.864Z,36.30
2019-02-16T03:00:42.210Z,39.43
2019-02-16T03:03:11.686Z,36.80
2019-02-16T03:05:42.115Z,39.03
2019-02-16T03:08:11.410Z,37.97
2019-02-16T03:10:40.921Z,37.70
2019-02-16T03:13:10.232Z,34.53
2019-02-16T03:15:39.578Z,34.13
2019-02-16T03:18:08.895Z,36.57
2019-02-16T03:20:38.786Z,34.47
2019-02-16T03:23:15.799Z,31.07
2019-02-16T03:25:51.561Z,37.53
2019-02-16T03:28:32.632Z,34.00
2019-02-16T03:31:17.199Z,32.73
2019-02-16T03:33:55.607Z,32.60
2019-02-16T03:36:39.963Z,34.87
2019-02-16T03:39:12.219Z,34.43
2019-02-16T03:41:41.580Z,33.40
2019-02-16T03:44:10.880Z,33.93
2019-02-16T03:46:40.565Z,38.30
2019-02-16T03:49:09.907Z,36.67
2019-02-16T03:51:39.465Z,37.83
2019-02-16T03:54:08.814Z,36.60
2019-02-16T03:56:38.177Z,36.60
2019-02-16T03:59:07.543Z,38.23
2019-02-16T04:01:36.850Z,37.70
2019-02-16T04:04:06.333Z,38.30
2019-02-16T04:06:35.657Z,40.70
2019-02-16T04:09:06.095Z,39.10
2019-02-16T04:11:35.411Z,37.67
2019-02-16T04:14:04.766Z,37.73
2019-02-16T04:16:34.066Z,37.57
2019-02-16T04:19:03.682Z,36.63
2019-02-16T04:21:33.001Z,36.63
2019-02-16T04:24:02.361Z,35.30
2019-02-16T04:26:31.674Z,35.53
2019-02-16T04:29:01.035Z,35.47
2019-02-16T04:31:30.370Z,38.00
2019-02-16T04:34:02.662Z,38.30
2019-02-16T04:36:31.972Z,38.23
2019-02-16T04:39:01.378Z,38.27
2019-02-16T04:41:32.283Z,37.23
2019-02-16T04:44:01.629Z,35.73
2019-02-16T04:46:30.932Z,36.93
2019-02-16T04:49:00.283Z,37.63
2019-02-16T04:51:29.580Z,39.00
2019-02-16T04:53:59.115Z,41.17
2019-02-16T04:56:28.417Z,39.83
2019-02-16T04:58:57.769Z,39.27
2019-02-16T05:01:27.118Z,37.53
2019-02-16T05:03:56.435Z,38.60
2019-02-16T05:06:25.789Z,41.47
2019-02-16T05:08:55.097Z,36.83
2019-02-16T05:11:24.452Z,35.67
2019-02-16T05:13:53.745Z,35.07
2019-02-16T05:16:23.093Z,35.13
2019-02-16T05:18:52.470Z,35.37
2019-02-16T05:21:21.851Z,34.57
2019-02-16T05:23:51.149Z,38.33
2019-02-16T05:26:20.500Z,35.17
2019-02-16T05:28:49.814Z,37.30
2019-02-16T05:31:19.167Z,37.67
2019-02-16T05:33:48.482Z,38.83
2019-02-16T05:36:17.838Z,38.90
2019-02-16T05:38:47.146Z,40.37
2019-02-16T05:41:16.678Z,41.07
2019-02-16T05:43:46.005Z,38.93
2019-02-16T05:46:15.368Z,40.90
2019-02-16T05:48:45.457Z,40.80
2019-02-16T05:51:14.816Z,39.83
2019-02-16T05:53:44.125Z,40.97
2019-02-16T05:56:13.486Z,42.77
2019-02-16T05:58:42.835Z,38.23
2019-02-16T06:01:12.258Z,41.97
2019-02-16T06:03:41.565Z,42.47
2019-02-16T06:06:11.457Z,47.93
2019-02-16T06:08:41.066Z,44.30
2019-02-16T06:11:10.504Z,46.77
2019-02-16T06:13:39.802Z,43.40
2019-02-16T06:16:09.168Z,43.40
2019-02-16T06:18:38.505Z,40.93
2019-02-16T06:21:07.882Z,41.53
2019-02-16T06:23:37.206Z,43.07
2019-02-16T06:26:06.603Z,42.33
2019-02-16T06:28:36.235Z,41.33
2019-02-16T06:31:05.634Z,39.37
2019-02-16T06:33:34.962Z,42.43
2019-02-16T06:36:06.001Z,41.73
2019-02-16T06:38:35.315Z,40.63
2019-02-16T06:41:04.693Z,42.40
2019-02-16T06:43:34.011Z,43.87
2019-02-16T06:46:04.245Z,42.67
2019-02-16T06:48:33.567Z,45.17
2019-02-16T06:51:02.921Z,42.37
2019-02-16T06:53:32.232Z,44.67
2019-02-16T06:56:03.257Z,44.10
2019-02-16T06:58:32.564Z,45.80
2019-02-16T07:01:01.921Z,43.47
2019-02-16T07:03:31.559Z,44.27
2019-02-16T07:06:00.861Z,46.50
2019-02-16T07:08:30.213Z,45.43
2019-02-16T07:10:59.621Z,47.17
2019-02-16T07:13:28.996Z,46.30
2019-02-16T07:16:11.862Z,48.20
2019-02-16T07:18:48.692Z,45.93
2019-02-16T07:21:18.247Z,45.57
2019-02-16T07:23:47.661Z,45.00
2019-02-16T07:26:16.969Z,47.53
2019-02-16T07:28:46.321Z,46.10
2019-02-16T07:31:16.017Z,43.80
2019-02-16T07:33:45.387Z,44.63
2019-02-16T07:36:14.690Z,40.97
2019-02-16T07:38:44.046Z,37.37
2019-02-16T07:41:14.507Z,42.13
2019-02-16T07:43:51.490Z,39.87
2019-02-16T07:46:22.733Z,39.23
2019-02-16T07:48:53.804Z,38.33
2019-02-16T07:51:30.807Z,33.13
2019-02-16T07:54:07.575Z,35.50
2019-02-16T07:56:38.545Z,34.33
2019-02-16T07:59:25.573Z,31.60
2019-02-16T08:01:56.835Z,33.43
2019-02-16T08:04:30.729Z,31.30
2019-02-16T08:07:07.817Z,30.63
2019-02-16T08:09:39.436Z,27.63
2019-02-16T08:12:10.489Z,23.93
2019-02-16T08:14:45.294Z,24.47
2019-02-16T08:17:22.033Z,25.33
2019-02-16T08:20:09.010Z,25.53
2019-02-16T08:22:55.993Z,26.00
2019-02-16T08:25:32.443Z,25.23
2019-02-16T08:28:06.161Z,25.23
2019-02-16T08:30:46.236Z,24.87
2019-02-16T08:33:19.918Z,26.90
2019-02-16T08:36:02.745Z,26.33
2019-02-16T08:38:51.853Z,24.77
2019-02-16T08:41:22.841Z,26.07
2019-02-16T08:43:56.535Z,26.23
2019-02-16T08:46:30.368Z,25.97
2019-02-16T08:49:07.103Z,25.97
2019-02-16T08:51:40.973Z,25.50
2019-02-16T08:54:27.946Z,25.13
2019-02-16T08:57:11.688Z,25.23
2019-02-16T08:59:42.645Z,25.47
2019-02-16T09:02:19.565Z,27.23
2019-02-16T09:04:50.515Z,26.93
2019-02-16T09:07:27.106Z,27.50
2019-02-16T09:10:09.967Z,26.73
2019-02-16T09:12:43.937Z,27.87
2019-02-16T09:15:17.805Z,27.17
2019-02-16T09:18:05.721Z,25.23
2019-02-16T09:20:42.173Z,26.57
2019-02-16T09:23:22.173Z,28.23
2019-02-16T09:25:56.029Z,26.90
2019-02-16T09:28:43.069Z,28.93
2019-02-16T09:31:14.026Z,27.83
2019-02-16T09:33:56.969Z,27.87
2019-02-16T09:36:27.979Z,29.93
2019-02-16T09:39:10.925Z,29.07
2019-02-16T09:41:48.073Z,30.67
2019-02-16T09:44:21.846Z,29.27
2019-02-16T09:46:53.285Z,28.13
2019-02-16T09:49:26.945Z,30.30
2019-02-16T09:52:06.884Z,31.13
2019-02-16T09:54:37.873Z,30.00
2019-02-16T09:57:11.553Z,30.70
2019-02-16T09:59:45.065Z,27.27
2019-02-16T10:02:19.041Z,31.63
2019-02-16T10:04:55.858Z,30.57
2019-02-16T10:07:32.908Z,29.20
2019-02-16T10:10:13.058Z,29.50
2019-02-16T10:12:46.802Z,32.63
2019-02-16T10:15:20.821Z,29.57
2019-02-16T10:17:51.764Z,33.20
2019-02-16T10:20:22.753Z,30.80
2019-02-16T10:22:53.741Z,33.33
2019-02-16T10:25:30.777Z,35.23
2019-02-16T10:28:07.597Z,33.80
2019-02-16T10:30:39.388Z,31.77
2019-02-16T10:33:19.286Z,33.20
2019-02-16T10:35:50.307Z,30.77
2019-02-16T10:38:21.501Z,31.27
2019-02-16T10:40:55.512Z,31.10
2019-02-16T10:43:32.349Z,30.27
2019-02-16T10:46:19.391Z,30.77
2019-02-16T10:49:17.119Z,29.33
2019-02-16T10:52:00.080Z,29.23
2019-02-16T10:54:36.794Z,29.70
2019-02-16T10:57:13.563Z,28.47
2019-02-16T10:59:56.513Z,29.33
2019-02-16T11:02:30.472Z,30.20
2019-02-16T11:05:04.436Z,29.57
2019-02-16T11:07:35.527Z,30.00
2019-02-16T11:10:13.004Z,29.53
2019-02-16T11:12:44.008Z,28.90
2019-02-16T11:15:31.644Z,28.67
2019-02-16T11:18:05.518Z,26.47
2019-02-16T11:20:52.479Z,26.17
2019-02-16T11:23:32.313Z,26.00
2019-02-16T11:26:06.177Z,25.13
2019-02-16T11:28:53.194Z,27.23
2019-02-16T11:31:24.161Z,27.67
2019-02-16T11:33:58.277Z,26.33
2019-02-16T11:36:35.398Z,25.50
2019-02-16T11:39:10.163Z,38.70
2019-02-16T11:41:44.077Z,26.47
2019-02-16T11:44:31.111Z,23.73
2019-02-16T11:47:02.051Z,23.17
2019-02-16T11:49:36.005Z,24.77
2019-02-16T11:52:06.958Z,22.13
2019-02-16T11:54:45.480Z,21.53
2019-02-16T11:57:14.777Z,22.07
2019-02-16T12:00:00.675Z,21.90
2019-02-16T12:02:39.692Z,19.47
2019-02-16T12:05:16.644Z,19.67
2019-02-16T12:07:54.615Z,19.73
2019-02-16T12:10:25.756Z,20.23
2019-02-16T12:13:05.695Z,17.50
2019-02-16T12:15:36.649Z,16.77
2019-02-16T12:18:20.207Z,16.97
2019-02-16T12:21:00.031Z,16.50
2019-02-16T12:23:33.782Z,18.00
2019-02-16T12:26:07.715Z,16.93
2019-02-16T12:28:53.776Z,17.30
2019-02-16T12:31:37.841Z,18.77
2019-02-16T12:34:20.577Z,17.43
2019-02-16T12:37:00.398Z,18.20
2019-02-16T12:39:47.501Z,20.67
2019-02-16T12:42:18.461Z,20.03
2019-02-16T12:45:01.217Z,19.50
2019-02-16T12:47:38.329Z,21.77
2019-02-16T12:50:27.201Z,22.17
2019-02-16T12:53:14.039Z,19.87
2019-02-16T12:55:48.002Z,19.07
2019-02-16T12:58:18.953Z,17.20
2019-02-16T13:00:49.956Z,18.03
2019-02-16T13:03:26.653Z,16.20
2019-02-16T13:05:57.640Z,18.10
2019-02-16T13:08:37.355Z,17.40
2019-02-16T13:11:08.613Z,17.53
2019-02-16T13:13:39.587Z,17.17
2019-02-16T13:16:10.575Z,18.70
2019-02-16T13:18:47.473Z,17.77
2019-02-16T13:21:18.467Z,20.13
2019-02-16T13:23:49.423Z,18.10
2019-02-16T13:26:36.217Z,19.30
2019-02-16T13:29:13.134Z,18.50
2019-02-16T13:31:46.837Z,21.90
2019-02-16T13:34:17.713Z,18.07
2019-02-16T13:36:51.806Z,16.57
2019-02-16T13:39:37.653Z,19.93
2019-02-16T13:42:23.482Z,18.27
2019-02-16T13:44:57.226Z,21.03
2019-02-16T13:47:34.145Z,20.93
2019-02-16T13:50:05.481Z,20.40
2019-02-16T13:52:48.617Z,20.87
2019-02-16T13:55:36.331Z,20.30
2019-02-16T13:58:16.598Z,19.93
2019-02-16T14:00:47.541Z,21.70
2019-02-16T14:03:18.533Z,21.80
2019-02-16T14:06:04.276Z,22.57
2019-02-16T14:08:38.557Z,20.70
2019-02-16T14:11:12.535Z,21.37
2019-02-16T14:13:52.545Z,21.57
2019-02-16T14:16:23.493Z,20.70
2019-02-16T14:18:52.846Z,21.63
2019-02-16T14:21:22.163Z,20.83
2019-02-16T14:23:51.509Z,21.60
2019-02-16T14:26:21.877Z,22.60
2019-02-16T14:28:55.293Z,21.97
2019-02-16T14:31:28.539Z,22.33
2019-02-16T14:33:57.154Z,23.07
2019-02-16T14:36:26.710Z,23.73
2019-02-16T14:39:00.529Z,25.00
2019-02-16T14:41:30.521Z,25.50
2019-02-16T14:43:59.887Z,24.17
2019-02-16T14:46:29.203Z,25.80
2019-02-16T14:48:58.573Z,24.27
2019-02-16T14:51:27.889Z,26.20
2019-02-16T14:53:57.245Z,26.43
2019-02-16T14:56:26.601Z,24.93
2019-02-16T14:58:55.961Z,25.23
2019-02-16T15:01:25.325Z,25.00
2019-02-16T15:03:54.649Z,26.97
2019-02-16T15:06:24.013Z,25.20
2019-02-16T15:08:53.322Z,25.80
2019-02-16T15:11:22.685Z,26.53
2019-02-16T15:13:52.001Z,24.47
2019-02-16T15:16:21.353Z,28.40
2019-02-16T15:18:50.672Z,26.60
2019-02-16T15:21:20.229Z,27.67
2019-02-16T15:23:49.549Z,28.90
2019-02-16T15:26:18.897Z,28.90
2019-02-16T15:28:48.214Z,28.87
2019-02-16T15:31:17.566Z,29.80
2019-02-16T15:33:46.893Z,33.97
2019-02-16T15:36:23.773Z,31.37
2019-02-16T15:38:48.250Z,33.60
2019-02-16T15:41:17.838Z,30.13
2019-02-16T15:43:48.277Z,87.23
2019-02-16T15:46:17.626Z,35.57
2019-02-16T15:48:46.945Z,35.13
2019-02-16T15:51:16.373Z,33.27
2019-02-16T15:53:45.690Z,33.77
2019-02-16T15:56:15.040Z,34.13
2019-02-16T15:58:44.468Z,39.70
2019-02-16T16:01:13.905Z,35.83
2019-02-16T16:03:43.255Z,48.43
2019-02-16T16:06:12.596Z,42.50
2019-02-16T16:08:49.330Z,36.67
2019-02-16T16:11:29.251Z,36.13
2019-02-16T16:14:09.234Z,40.07
2019-02-16T16:16:43.217Z,74.80
2019-02-16T16:19:14.165Z,73.17
2019-02-16T16:22:03.266Z,52.40
2019-02-16T16:24:46.245Z,36.30
2019-02-16T16:27:33.450Z,39.80
2019-02-16T16:30:20.386Z,37.03
2019-02-16T16:33:00.260Z,46.60
2019-02-16T16:35:31.209Z,44.30
2019-02-16T16:38:07.982Z,41.67
2019-02-16T16:40:48.078Z,65.47
2019-02-16T16:43:19.065Z,66.60
2019-02-16T16:46:05.201Z,44.37
2019-02-16T16:48:52.102Z,35.60
2019-02-16T16:51:25.809Z,33.73
2019-02-16T16:53:59.826Z,42.97
2019-02-16T16:56:33.493Z,35.03
2019-02-16T16:59:16.447Z,33.93
2019-02-16T17:01:53.455Z,41.83
2019-02-16T17:04:30.488Z,33.83
2019-02-16T17:07:13.427Z,46.47
2019-02-16T17:09:47.400Z,43.13
2019-02-16T17:12:34.591Z,33.67
2019-02-16T17:14:59.984Z,34.13
2019-02-16T17:17:33.910Z,53.00
2019-02-16T17:20:21.052Z,36.17
2019-02-16T17:23:08.157Z,119.27
2019-02-16T17:25:57.277Z,129.40
2019-02-16T17:28:45.078Z,170.27
2019-02-16T17:31:17.049Z,44.87
2019-02-16T17:33:47.997Z,39.83
2019-02-16T17:36:22.208Z,36.83
2019-02-16T17:39:09.450Z,42.17
2019-02-16T17:41:51.419Z,37.23
2019-02-16T17:44:38.253Z,36.17
2019-02-16T17:47:21.358Z,36.33
2019-02-16T17:50:04.212Z,39.57
2019-02-16T17:52:41.153Z,38.10
2019-02-16T17:55:20.940Z,36.93
2019-02-16T17:57:54.590Z,36.80
2019-02-16T18:00:31.552Z,38.50
2019-02-16T18:03:20.645Z,36.23
2019-02-16T18:06:07.449Z,35.43
2019-02-16T18:08:54.788Z,36.27
2019-02-16T18:11:28.305Z,36.50
2019-02-16T18:14:17.106Z,38.23
2019-02-16T18:16:48.103Z,37.33
2019-02-16T18:19:25.101Z,37.53
2019-02-16T18:21:56.098Z,39.37
2019-02-16T18:24:45.115Z,50.00
2019-02-16T18:27:25.018Z,39.57
2019-02-16T18:29:56.040Z,54.07
2019-02-16T18:32:43.105Z,48.17
2019-02-16T18:35:24.156Z,42.50
2019-02-16T18:37:55.367Z,38.47
2019-02-16T18:40:26.353Z,44.87
2019-02-16T18:43:00.109Z,41.30
2019-02-16T18:45:47.106Z,37.83
2019-02-16T18:48:21.092Z,41.23
2019-02-16T18:51:08.454Z,37.80
2019-02-16T18:53:39.677Z,38.40
2019-02-16T18:56:22.714Z,40.87
2019-02-16T18:58:53.699Z,40.83
2019-02-16T19:01:42.553Z,36.27
2019-02-16T19:04:22.281Z,40.20
2019-02-16T19:07:05.332Z,35.03
2019-02-16T19:09:52.750Z,40.00
2019-02-16T19:12:40.801Z,37.37
2019-02-16T19:15:14.340Z,36.37
2019-02-16T19:17:45.261Z,37.47
2019-02-16T19:20:16.257Z,42.50
2019-02-16T19:22:50.242Z,40.50
2019-02-16T19:25:26.645Z,39.73
2019-02-16T19:28:13.823Z,47.17
2019-02-16T19:30:44.812Z,40.47
2019-02-16T19:33:31.849Z,36.43
2019-02-16T19:36:21.388Z,35.87
2019-02-16T19:38:58.261Z,34.63
2019-02-16T19:41:45.544Z,37.53
2019-02-16T19:44:23.401Z,33.87
2019-02-16T19:46:57.101Z,34.33
2019-02-16T19:49:44.397Z,32.43
2019-02-16T19:52:31.441Z,35.03
2019-02-16T19:55:08.405Z,33.03
2019-02-16T19:57:54.468Z,34.00
2019-02-16T20:00:25.457Z,32.63
2019-02-16T20:03:12.683Z,33.70
2019-02-16T20:05:43.756Z,34.70
2019-02-16T20:08:15.675Z,37.50
2019-02-16T20:10:49.156Z,34.93
2019-02-16T20:13:36.093Z,33.80
2019-02-16T20:16:07.089Z,33.53
2019-02-16T20:18:38.039Z,33.10
2019-02-16T20:21:17.909Z,31.57
2019-02-16T20:23:57.957Z,32.17
2019-02-16T20:26:45.246Z,31.67
2019-02-16T20:29:18.927Z,30.37
2019-02-16T20:31:49.938Z,30.27
2019-02-16T20:34:29.630Z,30.77
2019-02-16T20:37:00.629Z,29.97
2019-02-16T20:39:46.393Z,32.97
2019-02-16T20:42:24.990Z,33.03
2019-02-16T20:45:07.838Z,31.33
2019-02-16T20:47:41.779Z,33.30
2019-02-16T20:50:21.685Z,31.50
2019-02-16T20:53:04.701Z,30.00
2019-02-16T20:55:41.749Z,29.57
2019-02-16T20:58:12.772Z,29.80
2019-02-16T21:00:44.685Z,31.63
2019-02-16T21:03:15.702Z,32.23
2019-02-16T21:05:55.677Z,32.77
2019-02-16T21:08:32.371Z,32.27
2019-02-16T21:11:07.243Z,32.70
2019-02-16T21:13:39.478Z,34.37
2019-02-16T21:16:16.345Z,30.83
2019-02-16T21:18:47.360Z,29.83
2019-02-16T21:21:21.228Z,29.67
2019-02-16T21:23:52.246Z,28.33
2019-02-16T21:26:37.043Z,29.60
2019-02-16T21:29:12.761Z,29.03
2019-02-16T21:31:55.927Z,30.80
2019-02-16T21:34:32.740Z,33.90
2019-02-16T21:37:12.660Z,32.83
2019-02-16T21:39:43.647Z,31.87
2019-02-16T21:42:14.634Z,31.70
2019-02-16T21:44:45.646Z,32.33
2019-02-16T21:47:25.546Z,31.53
2019-02-16T21:50:02.053Z,30.67
2019-02-16T21:52:33.072Z,31.73
2019-02-16T21:55:13.042Z,27.23
2019-02-16T21:57:46.758Z,32.13
2019-02-16T22:00:29.350Z,32.90
2019-02-16T22:03:00.399Z,30.77
2019-02-16T22:05:31.404Z,28.77
2019-02-16T22:08:14.570Z,30.13
2019-02-16T22:10:54.187Z,28.60
2019-02-16T22:13:23.477Z,29.60
2019-02-16T22:15:52.850Z,32.23
2019-02-16T22:18:22.148Z,30.70
2019-02-16T22:20:51.502Z,28.23
2019-02-16T22:23:21.781Z,28.93
2019-02-16T22:25:51.265Z,30.17
2019-02-16T22:28:30.572Z,31.27
2019-02-16T22:30:51.917Z,32.07
2019-02-16T22:33:21.224Z,30.87
2019-02-16T22:35:50.578Z,30.83
2019-02-16T22:38:19.928Z,30.00
2019-02-16T22:40:49.301Z,30.23
2019-02-16T22:43:18.689Z,32.13
2019-02-16T22:45:48.065Z,32.73
2019-02-16T22:48:17.425Z,33.77
2019-02-16T22:50:46.756Z,31.43
2019-02-16T22:53:16.093Z,31.43
2019-02-16T22:55:45.393Z,32.23
2019-02-16T22:58:14.738Z,33.10
2019-02-16T23:00:45.409Z,32.53
2019-02-16T23:03:16.386Z,35.40
2019-02-16T23:05:46.966Z,31.60
2019-02-16T23:08:16.330Z,33.90
2019-02-16T23:10:45.697Z,34.47
2019-02-16T23:13:16.513Z,36.47
2019-02-16T23:15:45.889Z,34.63
2019-02-16T23:18:15.249Z,35.13
2019-02-16T23:20:44.559Z,35.43
2019-02-16T23:23:13.906Z,34.70
2019-02-16T23:25:43.214Z,33.63
2019-02-16T23:28:13.357Z,40.00
2019-02-16T23:30:42.826Z,36.83
2019-02-16T23:33:12.187Z,35.97
2019-02-16T23:35:41.499Z,33.67
2019-02-16T23:38:10.861Z,34.60
2019-02-16T23:40:40.834Z,36.27
2019-02-16T23:43:10.517Z,37.70
2019-02-16T23:45:41.432Z,35.60
2019-02-16T23:48:10.818Z,35.87
2019-02-16T23:50:40.293Z,35.77
2019-02-16T23:53:12.425Z,33.20
2019-02-16T23:55:41.728Z,31.47
2019-02-16T23:58:11.093Z,30.10
